Time;durP1;ratioP1;P1;durP2;ratioP2;P2;SDS_P1;SDS_P2;PMS_P1;PMS_P2;Temp;Humidity;BMP_temperature;BMP_pressure;BME280_temperature;BME280_humidity;BME280_pressure;Samples;Min_cycle;Max_cycle;Signal;HPM_P1;HPM_P2
2020/12/20 00:01:00;;;;;;;56.70;34.58;;;;;;;3.29;87.55;101490.45;1693090;83;25834;-78
2020/12/20 00:03:27;;;;;;;57.78;34.85;;;;;;;3.29;87.68;101482.70;1696144;83;26769;-78
2020/12/20 00:05:54;;;;;;;55.15;32.88;;;;;;;3.28;87.48;101481.05;1693454;83;25808;-78
2020/12/20 00:08:20;;;;;;;53.90;32.45;;;;;;;3.27;87.50;101474.23;1693509;83;25804;-78
2020/12/20 00:10:46;;;;;;;53.68;32.45;;;;;;;3.31;87.45;101483.45;1691616;83;25798;-78
2020/12/20 00:13:17;;;;;;;53.87;33.15;;;;;;;3.29;87.35;101480.59;1692638;83;25965;-79
2020/12/20 00:15:41;;;;;;;52.95;33.00;;;;;;;3.18;87.31;101462.31;1692028;83;25757;-78
2020/12/20 00:18:07;;;;;;;55.40;33.58;;;;;;;3.18;87.31;101462.31;1694421;83;25646;-78
2020/12/20 00:20:34;;;;;;;58.52;34.83;;;;;;;3.26;87.32;101471.73;1692948;83;25941;-78
2020/12/20 00:23:00;;;;;;;56.40;33.42;;;;;;;3.22;87.35;101474.11;1693659;83;25302;-78
2020/12/20 00:25:26;;;;;;;54.15;33.45;;;;;;;3.22;87.31;101477.55;1670602;83;25363;-78
2020/12/20 00:27:52;;;;;;;54.23;34.58;;;;;;;3.23;87.45;101477.08;1692018;83;26532;-79
2020/12/20 00:30:19;;;;;;;53.52;32.38;;;;;;;3.25;87.62;101481.23;1696823;83;25827;-79
2020/12/20 00:32:45;;;;;;;54.05;33.48;;;;;;;3.25;87.44;101485.58;1692667;83;26183;-78
2020/12/20 00:35:12;;;;;;;53.40;32.13;;;;;;;3.25;87.44;101485.58;1693084;83;25858;-79
2020/12/20 00:37:38;;;;;;;54.90;33.58;;;;;;;3.33;87.49;101488.08;1691563;83;25665;-79
2020/12/20 00:40:05;;;;;;;54.18;33.28;;;;;;;3.33;87.49;101488.08;1671747;84;25723;-78
2020/12/20 00:42:31;;;;;;;51.77;31.87;;;;;;;3.34;87.48;101491.02;1692665;83;26469;-79
2020/12/20 00:44:57;;;;;;;59.98;35.17;;;;;;;3.32;87.33;101491.56;1693702;83;25724;-79
2020/12/20 00:47:24;;;;;;;55.88;32.88;;;;;;;3.25;87.43;101486.41;1695585;83;25779;-78
2020/12/20 00:49:50;;;;;;;51.65;32.03;;;;;;;3.25;87.43;101486.41;1695934;83;25787;-78
2020/12/20 00:52:17;;;;;;;56.83;34.53;;;;;;;3.26;87.47;101485.47;1693934;83;26331;-78
2020/12/20 00:54:43;;;;;;;55.78;34.38;;;;;;;3.28;87.54;101487.98;1697808;83;25757;-79
2020/12/20 00:57:10;;;;;;;52.98;31.27;;;;;;;3.28;87.52;101482.34;1693900;83;26807;-79
2020/12/20 00:59:37;;;;;;;57.20;32.55;;;;;;;3.26;87.47;101485.94;1693903;83;25771;-78
2020/12/20 01:02:04;;;;;;;55.05;33.85;;;;;;;3.21;87.44;101484.91;1694811;83;25905;-79
2020/12/20 01:04:31;;;;;;;54.20;32.98;;;;;;;3.17;87.38;101489.90;1696772;83;26426;-78
2020/12/20 01:06:58;;;;;;;54.67;32.00;;;;;;;3.17;87.44;101485.20;1693575;83;26256;-79
2020/12/20 01:09:26;;;;;;;54.45;33.48;;;;;;;3.11;87.41;101484.63;1686726;83;26416;-78
2020/12/20 01:11:59;;;;;;;55.40;32.58;;;;;;;3.14;87.56;101485.34;1694051;83;25801;-79
2020/12/20 01:14:27;;;;;;;52.10;30.70;;;;;;;3.16;87.67;101485.63;1692057;83;25869;-78
2020/12/20 01:16:55;;;;;;;52.93;30.80;;;;;;;3.05;87.78;101463.47;1694150;83;26140;-79
2020/12/20 01:19:22;;;;;;;49.03;31.15;;;;;;;3.05;87.78;101463.47;1672004;84;25779;-79
2020/12/20 01:21:48;;;;;;;57.05;31.93;;;;;;;3.14;87.56;101477.16;1693525;83;25799;-78
2020/12/20 01:24:14;;;;;;;53.08;31.17;;;;;;;3.13;87.61;101471.61;1693288;83;25294;-78
2020/12/20 01:26:41;;;;;;;56.58;32.48;;;;;;;3.03;87.96;101450.67;1702689;83;26358;-78
2020/12/20 01:29:08;;;;;;;57.75;33.58;;;;;;;3.03;87.96;101450.67;1698232;83;25781;-79
2020/12/20 01:31:34;;;;;;;58.95;32.48;;;;;;;3.19;87.89;101460.94;1695189;82;25650;-78
2020/12/20 01:34:05;;;;;;;61.15;33.63;;;;;;;3.21;87.90;101460.36;1693476;84;25901;-78
2020/12/20 01:36:32;;;;;;;59.80;32.33;;;;;;;3.21;87.73;101455.20;1692961;83;25815;-78
2020/12/20 01:39:00;;;;;;;56.13;32.28;;;;;;;3.21;87.75;101455.20;1695929;84;26265;-78
2020/12/20 01:41:27;;;;;;;53.83;31.42;;;;;;;3.20;87.69;101458.72;1695860;83;25820;-78
2020/12/20 01:43:53;;;;;;;55.83;33.05;;;;;;;3.19;87.64;101455.77;1695557;84;25879;-78
2020/12/20 01:46:22;;;;;;;60.60;32.90;;;;;;;3.19;87.67;101457.50;1694731;82;25666;-78
2020/12/20 01:48:52;;;;;;;59.67;33.42;;;;;;;3.16;87.79;101453.81;1670598;84;25863;-78
2020/12/20 01:51:20;;;;;;;58.73;34.13;;;;;;;3.24;87.83;101460.65;1696926;82;25840;-78
2020/12/20 01:53:50;;;;;;;60.23;35.08;;;;;;;3.25;88.21;101445.53;1694409;82;25935;-78
2020/12/20 01:56:19;;;;;;;59.65;32.08;;;;;;;3.30;87.94;101448.66;1696168;82;25784;-78
2020/12/20 01:58:47;;;;;;;63.97;34.53;;;;;;;3.30;87.98;101448.66;1694818;82;25813;-78
2020/12/20 02:01:15;;;;;;;63.00;32.75;;;;;;;3.30;87.90;101448.66;1695595;82;25653;-78
2020/12/20 02:03:46;;;;;;;61.23;33.18;;;;;;;3.27;87.87;101449.69;1595564;89;25901;-78
2020/12/20 02:06:15;;;;;;;55.55;31.25;;;;;;;3.25;87.93;101447.66;1595750;88;25977;-78
2020/12/20 02:08:44;;;;;;;59.38;33.20;;;;;;;3.23;87.82;101449.48;1595337;88;26138;-78
2020/12/20 02:11:15;;;;;;;55.70;30.95;;;;;;;3.16;87.74;101451.23;1596585;88;25794;-78
2020/12/20 02:13:47;;;;;;;54.88;31.30;;;;;;;3.15;87.82;101451.69;1595579;88;25809;-78
2020/12/20 02:16:14;;;;;;;54.30;30.32;;;;;;;3.11;88.00;101434.73;1576157;88;25692;-78
2020/12/20 02:18:42;;;;;;;55.60;30.30;;;;;;;3.21;88.20;101451.33;1596326;88;25942;-78
2020/12/20 02:21:21;;;;;;;56.83;30.45;;;;;;;3.23;88.05;101448.20;1596609;88;25840;-78
2020/12/20 02:23:51;;;;;;;55.15;30.45;;;;;;;3.25;88.13;101445.07;1595909;88;25814;-78
2020/12/20 02:26:23;;;;;;;58.65;30.92;;;;;;;3.27;88.10;101450.98;1596668;88;25883;-78
2020/12/20 02:28:52;;;;;;;53.55;29.80;;;;;;;3.29;88.10;101458.62;1595173;88;25850;-78
2020/12/20 02:31:22;;;;;;;52.75;30.08;;;;;;;3.32;88.10;101451.98;1596730;88;27228;-78
2020/12/20 02:33:48;;;;;;;48.80;28.65;;;;;;;3.19;88.03;101428.65;1596285;88;26357;-78
2020/12/20 02:36:15;;;;;;;52.15;29.05;;;;;;;3.34;88.08;101452.73;1594370;88;25901;-78
2020/12/20 02:38:42;;;;;;;56.23;29.35;;;;;;;3.34;88.02;101447.56;1595356;88;25388;-78
2020/12/20 02:41:18;;;;;;;56.50;28.50;;;;;;;3.36;88.06;101455.23;1642491;82;25767;-78
2020/12/20 02:43:46;;;;;;;59.08;33.20;;;;;;;3.39;88.05;101452.00;1692737;82;25819;-78
2020/12/20 02:46:18;;;;;;;57.67;31.12;;;;;;;3.27;87.91;101434.19;1690925;83;25939;-78
2020/12/20 02:48:46;;;;;;;53.52;29.48;;;;;;;3.36;88.00;101449.61;1692946;83;25796;-78
2020/12/20 02:51:13;;;;;;;60.43;31.50;;;;;;;3.37;87.97;101450.42;1692851;83;25913;-78
2020/12/20 02:53:40;;;;;;;55.20;30.32;;;;;;;3.34;88.01;101448.39;1661458;84;25798;-78
2020/12/20 02:56:07;;;;;;;59.05;29.75;;;;;;;3.31;87.87;101447.75;1671492;83;26616;-78
2020/12/20 02:58:34;;;;;;;57.65;29.40;;;;;;;3.16;87.81;101422.81;1695335;83;25782;-78
2020/12/20 03:01:10;;;;;;;52.40;27.37;;;;;;;3.24;88.09;101434.81;1700092;83;25826;-79
2020/12/20 03:03:36;;;;;;;57.15;28.67;;;;;;;3.06;87.97;101396.72;1692182;83;25896;-78
2020/12/20 03:06:02;;;;;;;54.75;28.95;;;;;;;3.25;88.05;101432.16;1692289;83;25680;-78
2020/12/20 03:08:29;;;;;;;52.85;29.23;;;;;;;3.28;88.24;101425.98;1691030;82;25732;-77
2020/12/20 03:10:55;;;;;;;51.37;28.90;;;;;;;3.33;88.31;101420.90;1691545;83;25812;-78
2020/12/20 03:13:22;;;;;;;53.83;27.70;;;;;;;3.38;88.24;101421.89;1691485;83;25716;-78
2020/12/20 03:15:50;;;;;;;49.23;27.13;;;;;;;3.40;88.23;101425.69;1689757;84;26259;-78
2020/12/20 03:18:18;;;;;;;53.40;27.52;;;;;;;3.40;88.07;101423.93;1674477;83;25612;-78
2020/12/20 03:20:45;;;;;;;49.35;26.75;;;;;;;3.40;87.97;101421.34;1673802;84;26444;-78
2020/12/20 03:23:11;;;;;;;52.55;29.35;;;;;;;3.38;87.93;101423.66;1691381;83;26874;-78
2020/12/20 03:25:39;;;;;;;52.10;28.57;;;;;;;3.41;88.04;101429.49;1687062;83;26658;-78
2020/12/20 03:28:19;;;;;;;50.92;28.95;;;;;;;3.41;87.94;101431.22;1691892;83;25753;-78
2020/12/20 03:30:49;;;;;;;51.40;29.20;;;;;;;3.37;87.86;101431.88;1691406;83;25930;-78
2020/12/20 03:33:21;;;;;;;52.93;27.95;;;;;;;3.33;87.82;101431.23;1652428;85;26034;-78
2020/12/20 03:35:51;;;;;;;49.38;27.75;;;;;;;3.33;88.05;101435.58;1651678;85;25881;-78
2020/12/20 03:38:18;;;;;;;51.40;29.27;;;;;;;3.36;88.07;101432.81;1652526;85;25960;-78
2020/12/20 03:40:45;;;;;;;52.40;27.25;;;;;;;3.27;87.94;101426.87;1651398;85;26607;-78
2020/12/20 03:43:12;;;;;;;46.77;26.17;;;;;;;3.27;87.94;101426.87;1651964;85;26658;-78
2020/12/20 03:45:40;;;;;;;48.30;26.33;;;;;;;3.24;87.99;101430.47;1650471;85;27337;-78
2020/12/20 03:48:08;;;;;;;47.93;26.37;;;;;;;3.24;87.99;101430.47;1652262;85;26012;-79
2020/12/20 03:50:36;;;;;;;50.35;26.65;;;;;;;3.23;88.09;101424.13;1652272;85;25792;-79
2020/12/20 03:53:02;;;;;;;45.65;25.88;;;;;;;3.24;88.21;101418.84;1654342;85;25817;-78
2020/12/20 03:55:42;;;;;;;;;;;;;;;3.28;88.27;101425.51;1653926;85;25918;-78
2020/12/20 03:58:09;;;;;;;48.05;25.90;;;;;;;3.27;88.14;101432.91;1644465;85;26510;-78
2020/12/20 04:00:35;;;;;;;45.48;24.85;;;;;;;3.26;88.02;101431.22;1652847;85;25827;-78
2020/12/20 04:03:07;;;;;;;42.95;24.52;;;;;;;3.32;88.35;101432.14;1653996;85;26091;-78
2020/12/20 04:05:35;;;;;;;47.95;27.00;;;;;;;3.38;88.45;101427.53;1653370;85;26467;-78
2020/12/20 04:08:01;;;;;;;45.80;25.32;;;;;;;3.41;88.34;101432.08;1651502;85;25871;-78
2020/12/20 04:10:28;;;;;;;51.58;28.27;;;;;;;3.34;88.08;101423.02;1665199;83;25811;-78
2020/12/20 04:12:55;;;;;;;39.98;23.85;;;;;;;3.40;88.21;101431.69;1685807;83;26349;-79
2020/12/20 04:15:23;;;;;;;46.08;26.12;;;;;;;3.38;87.95;101429.65;1694100;83;25823;-78
2020/12/20 04:17:49;;;;;;;47.40;26.70;;;;;;;3.36;87.97;101427.64;1692255;83;26350;-78
2020/12/20 04:20:16;;;;;;;43.98;25.72;;;;;;;3.36;88.07;101431.98;1665147;83;26400;-78
2020/12/20 04:22:46;;;;;;;46.80;26.50;;;;;;;3.33;88.00;101426.53;1689285;83;26127;-78
2020/12/20 04:25:20;;;;;;;44.90;25.62;;;;;;;3.31;88.07;101432.25;1694857;83;25685;-78
2020/12/20 04:28:03;;;;;;;46.95;26.15;;;;;;;3.28;88.16;101428.09;1689230;83;25777;-79
2020/12/20 04:30:31;;;;;;;48.83;27.42;;;;;;;3.26;88.19;101417.48;1693358;83;26258;-78
2020/12/20 04:32:59;;;;;;;44.80;27.25;;;;;;;3.26;88.19;101417.48;1690829;83;25870;-78
2020/12/20 04:35:25;;;;;;;44.88;25.30;;;;;;;3.28;88.40;101432.44;1672333;83;25832;-78
2020/12/20 04:37:52;;;;;;;46.42;25.05;;;;;;;3.28;88.32;101421.63;1673192;83;26427;-79
2020/12/20 04:40:21;;;;;;;43.68;25.35;;;;;;;3.29;88.33;101425.04;1692376;83;26616;-78
2020/12/20 04:42:50;;;;;;;47.55;25.70;;;;;;;3.32;88.38;101430.84;1672581;83;26348;-78
2020/12/20 04:45:17;;;;;;;45.60;25.68;;;;;;;3.36;88.44;101425.52;1675213;83;25908;-78
2020/12/20 04:47:48;;;;;;;43.02;24.55;;;;;;;3.36;88.44;101425.52;1675682;83;26635;-78
2020/12/20 04:50:16;;;;;;;45.90;25.02;;;;;;;3.39;88.37;101430.03;1653148;83;25511;-79
2020/12/20 04:52:46;;;;;;;41.48;24.95;;;;;;;3.40;88.32;101425.69;1674938;83;25873;-78
2020/12/20 04:55:15;;;;;;;45.73;25.05;;;;;;;3.39;88.22;101430.50;1674617;83;25832;-78
2020/12/20 04:57:59;;;;;;;43.68;26.15;;;;;;;3.39;88.22;101430.50;1674482;83;25601;-78
2020/12/20 05:00:27;;;;;;;44.53;26.42;;;;;;;3.46;88.46;101438.23;1674270;83;25704;-78
2020/12/20 05:02:54;;;;;;;41.25;24.15;;;;;;;3.51;88.36;101442.67;1676752;83;25824;-78
2020/12/20 05:05:20;;;;;;;43.42;26.23;;;;;;;3.51;88.29;101442.20;1675954;83;25698;-79
2020/12/20 05:07:47;;;;;;;47.40;27.27;;;;;;;3.44;88.16;101438.34;1678253;83;25514;-78
2020/12/20 05:10:15;;;;;;;43.63;26.48;;;;;;;3.54;88.25;101443.31;1671788;83;26546;-78
2020/12/20 05:12:43;;;;;;;48.80;27.82;;;;;;;3.60;88.37;101442.57;1669498;84;26142;-79
2020/12/20 05:15:23;;;;;;;47.30;28.25;;;;;;;3.59;88.17;101444.33;1676730;83;25825;-79
2020/12/20 05:18:14;;;;;;;43.05;26.33;;;;;;;3.45;88.12;101421.08;1672017;83;25770;-79
2020/12/20 05:20:48;;;;;;;42.58;26.12;;;;;;;3.33;87.88;101420.90;1675117;83;25775;-78
2020/12/20 05:23:17;;;;;;;46.13;26.02;;;;;;;3.33;87.88;101420.90;1673261;84;25819;-78
2020/12/20 05:25:45;;;;;;;44.08;25.37;;;;;;;3.44;88.08;101446.57;1676490;83;25732;-78
2020/12/20 05:28:18;;;;;;;39.55;24.50;;;;;;;3.42;88.05;101445.82;1679449;83;25880;-78
2020/12/20 05:30:48;;;;;;;45.33;25.65;;;;;;;3.42;88.21;101445.35;1673209;85;25828;-78
2020/12/20 05:33:31;;;;;;;45.70;24.92;;;;;;;3.43;88.23;101457.34;1674975;83;25803;-78
2020/12/20 05:36:08;;;;;;;43.58;26.48;;;;;;;3.44;88.28;101442.69;1675543;83;25787;-78
2020/12/20 05:38:37;;;;;;;43.60;25.25;;;;;;;3.46;88.21;101453.28;1674891;84;25807;-78
2020/12/20 05:41:04;;;;;;;44.65;25.12;;;;;;;3.50;88.34;101457.82;1677509;83;25716;-79
2020/12/20 05:43:31;;;;;;;41.37;24.35;;;;;;;3.46;88.21;101445.98;1676866;82;26287;-78
2020/12/20 05:45:59;;;;;;;46.40;25.43;;;;;;;3.54;88.29;101455.41;1693934;82;25751;-79
2020/12/20 05:48:31;;;;;;;41.68;25.02;;;;;;;3.54;88.18;101456.23;1689261;82;25834;-78
2020/12/20 05:51:02;;;;;;;43.58;26.02;;;;;;;3.57;88.14;101461.68;1693913;82;25931;-79
2020/12/20 05:53:32;;;;;;;41.63;25.20;;;;;;;3.54;88.22;101457.52;1691052;82;26430;-78
2020/12/20 05:56:01;;;;;;;42.38;26.40;;;;;;;3.54;88.22;101457.52;1697261;82;25896;-78
2020/12/20 05:58:28;;;;;;;49.65;27.32;;;;;;;3.62;88.17;101467.87;1699777;82;25684;-78
2020/12/20 06:00:57;;;;;;;41.48;25.80;;;;;;;3.66;87.91;101467.61;1700445;82;25739;-79
2020/12/20 06:03:24;;;;;;;49.65;28.23;;;;;;;3.66;87.91;101467.61;1692639;82;25728;-78
2020/12/20 06:05:51;;;;;;;43.90;26.93;;;;;;;3.67;88.06;101478.30;1694435;82;25761;-78
2020/12/20 06:08:19;;;;;;;45.78;27.32;;;;;;;3.66;87.99;101481.00;1696674;82;25849;-79
2020/12/20 06:10:52;;;;;;;47.45;28.07;;;;;;;3.62;87.90;101482.92;1697647;82;25632;-79
2020/12/20 06:13:22;;;;;;;51.92;28.77;;;;;;;3.60;87.93;101489.10;1695886;82;25773;-79
2020/12/20 06:16:00;;;;;;;53.92;28.92;;;;;;;3.52;88.09;101476.66;1696083;82;25864;-79
2020/12/20 06:18:29;;;;;;;53.48;27.52;;;;;;;3.51;88.20;101470.63;1693979;82;25739;-78
2020/12/20 06:20:58;;;;;;;44.70;27.35;;;;;;;3.51;88.20;101470.63;1695965;82;25795;-79
2020/12/20 06:23:32;;;;;;;50.48;27.37;;;;;;;3.65;88.18;101494.36;1695509;82;26254;-79
2020/12/20 06:26:00;;;;;;;45.88;27.35;;;;;;;3.64;88.13;101498.34;1695055;82;25928;-78
2020/12/20 06:28:33;;;;;;;46.42;27.27;;;;;;;3.49;88.05;101466.04;1692528;82;25855;-78
2020/12/20 06:31:01;;;;;;;51.18;27.93;;;;;;;3.64;88.10;101491.89;1694238;82;25726;-78
2020/12/20 06:33:42;;;;;;;47.03;27.45;;;;;;;3.64;88.09;101491.89;1696729;82;25668;-78
2020/12/20 06:36:14;;;;;;;51.13;28.87;;;;;;;3.65;88.08;101498.70;1693210;82;26604;-78
2020/12/20 06:38:40;;;;;;;52.53;28.73;;;;;;;3.66;88.07;101501.68;1668925;82;26729;-78
2020/12/20 06:41:07;;;;;;;50.08;30.12;;;;;;;3.65;88.06;101498.24;1696810;82;25834;-78
2020/12/20 06:43:37;;;;;;;49.18;28.47;;;;;;;3.66;88.03;101505.09;1696135;82;25889;-78
2020/12/20 06:46:05;;;;;;;48.38;29.85;;;;;;;3.65;87.97;101501.30;1695267;82;25709;-79
2020/12/20 06:48:38;;;;;;;45.63;27.85;;;;;;;3.66;88.11;101502.50;1694484;82;26346;-78
2020/12/20 06:51:07;;;;;;;48.50;28.65;;;;;;;3.70;88.15;101495.39;1697388;82;26706;-79
2020/12/20 06:53:53;;;;;;;52.55;29.23;;;;;;;3.69;88.15;101491.16;1695020;82;25823;-78
2020/12/20 06:56:25;;;;;;;54.65;28.62;;;;;;;3.76;88.13;101505.35;1693985;82;25900;-79
2020/12/20 06:58:52;;;;;;;48.35;28.73;;;;;;;3.77;88.08;101507.03;1694409;82;26642;-78
2020/12/20 07:01:37;;;;;;;50.35;28.77;;;;;;;3.77;88.04;101512.20;1698518;82;26714;-78
2020/12/20 07:04:06;;;;;;;49.53;28.70;;;;;;;3.76;88.01;101511.37;1697270;82;26468;-78
2020/12/20 07:06:32;;;;;;;52.85;30.52;;;;;;;3.78;88.00;101519.85;1694959;82;26348;-78
2020/12/20 07:09:05;;;;;;;56.50;31.45;;;;;;;3.79;87.93;101519.39;1694820;82;25720;-78
2020/12/20 07:11:42;;;;;;;53.13;32.50;;;;;;;3.80;88.05;101518.48;1695542;82;26012;-78
2020/12/20 07:14:21;;;;;;;47.90;29.32;;;;;;;3.76;88.13;101524.31;1692906;82;25869;-78
2020/12/20 07:16:49;;;;;;;54.15;31.57;;;;;;;3.71;87.88;101523.75;1697138;82;25478;-78
2020/12/20 07:19:23;;;;;;;53.65;31.55;;;;;;;3.67;87.92;101522.72;1697803;82;25754;-78
2020/12/20 07:21:55;;;;;;;51.35;29.80;;;;;;;3.65;88.07;101524.09;1698304;82;25588;-78
2020/12/20 07:24:35;;;;;;;56.42;30.48;;;;;;;3.68;88.23;101525.66;1695816;82;26380;-78
2020/12/20 07:27:04;;;;;;;52.65;31.80;;;;;;;3.66;88.35;101524.95;1694734;82;26428;-78
2020/12/20 07:29:38;;;;;;;53.68;30.75;;;;;;;3.63;88.10;101527.25;1697612;82;25668;-78
2020/12/20 07:32:04;;;;;;;51.23;29.98;;;;;;;3.63;88.18;101528.55;1695373;82;25795;-78
2020/12/20 07:34:31;;;;;;;50.67;29.15;;;;;;;3.63;88.17;101526.39;1696414;82;25844;-78
2020/12/20 07:36:57;;;;;;;53.05;30.10;;;;;;;3.51;88.21;101500.36;1698333;82;25758;-78
2020/12/20 07:39:25;;;;;;;50.78;30.85;;;;;;;3.66;88.35;101524.48;1697598;82;25789;-78
2020/12/20 07:41:57;;;;;;;50.35;28.77;;;;;;;3.66;88.35;101524.48;1704396;82;25569;-78
2020/12/20 07:44:25;;;;;;;51.33;30.52;;;;;;;3.66;88.15;101529.65;1705099;82;26682;-78
2020/12/20 07:46:52;;;;;;;51.77;30.00;;;;;;;3.69;88.21;101533.81;1695141;83;25667;-78
2020/12/20 07:49:18;;;;;;;51.75;29.42;;;;;;;3.77;88.34;101540.18;1701268;82;26483;-78
2020/12/20 07:51:44;;;;;;;53.00;31.07;;;;;;;3.77;88.34;101540.18;1714455;82;25830;-78
2020/12/20 07:54:14;;;;;;;54.00;29.85;;;;;;;3.63;88.21;101516.91;1693535;83;25837;-78
2020/12/20 07:56:44;;;;;;;46.53;28.45;;;;;;;3.78;88.20;101541.83;1694384;83;26398;-78
2020/12/20 07:59:12;;;;;;;;;;;;;;;3.67;88.17;101523.55;1695875;84;25836;-78
2020/12/20 08:01:40;;;;;;;52.88;30.48;;;;;;;3.82;88.20;101543.80;1691945;83;25936;-78
2020/12/20 08:04:19;;;;;;;48.80;30.20;;;;;;;3.81;88.23;101553.75;1689119;83;25794;-78
2020/12/20 08:06:48;;;;;;;51.92;30.00;;;;;;;3.76;88.05;101551.89;1692995;83;25748;-78
2020/12/20 08:09:21;;;;;;;51.48;31.50;;;;;;;3.72;88.09;101556.89;1683185;83;25902;-78
2020/12/20 08:11:48;;;;;;;51.00;30.57;;;;;;;3.69;88.20;101560.95;1693570;82;25876;-78
2020/12/20 08:14:16;;;;;;;51.63;30.68;;;;;;;3.69;88.26;101560.95;1702800;83;25742;-78
2020/12/20 08:16:46;;;;;;;49.90;30.00;;;;;;;3.67;88.20;101564.09;1692249;83;25786;-78
2020/12/20 08:19:23;;;;;;;51.60;30.12;;;;;;;3.66;88.18;101559.85;1692397;83;26356;-78
2020/12/20 08:22:14;;;;;;;47.35;27.93;;;;;;;3.66;88.29;101569.72;1693513;83;26528;-79
2020/12/20 08:24:43;;;;;;;47.53;28.77;;;;;;;3.66;88.45;101561.14;1696287;82;26741;-79
2020/12/20 08:27:32;;;;;;;44.15;28.52;;;;;;;3.66;88.45;101561.14;1688734;83;25815;-78
2020/12/20 08:30:01;;;;;;;46.95;28.60;;;;;;;3.77;88.36;101575.55;1692394;83;25787;-78
2020/12/20 08:32:40;;;;;;;49.77;29.12;;;;;;;3.76;88.31;101574.73;1697959;82;26033;-78
2020/12/20 08:35:18;;;;;;;51.25;28.55;;;;;;;3.84;88.56;101580.71;1689422;82;25840;-78
2020/12/20 08:37:46;;;;;;;49.13;30.85;;;;;;;3.84;88.34;101581.18;1695511;82;25815;-78
2020/12/20 08:40:16;;;;;;;49.63;30.77;;;;;;;3.73;88.22;101562.42;1667403;82;26646;-78
2020/12/20 08:42:46;;;;;;;70.12;44.15;;;;;;;3.82;88.34;101575.27;1695042;82;25775;-78
2020/12/20 08:45:17;;;;;;;67.85;43.78;;;;;;;3.80;88.28;101581.83;1700080;82;25461;-78
2020/12/20 08:47:44;;;;;;;55.17;35.25;;;;;;;3.80;88.36;101584.89;1708739;82;26802;-78
2020/12/20 08:50:13;;;;;;;53.90;34.18;;;;;;;3.72;88.27;101586.63;1700017;82;25684;-78
2020/12/20 08:52:40;;;;;;;53.42;31.93;;;;;;;3.66;88.38;101583.94;1696725;82;25355;-78
2020/12/20 08:55:08;;;;;;;60.67;38.50;;;;;;;3.67;88.57;101584.77;1695283;82;25805;-78
2020/12/20 08:57:36;;;;;;;54.80;34.45;;;;;;;3.68;88.65;101582.55;1696614;82;25796;-78
2020/12/20 09:00:14;;;;;;;59.93;39.00;;;;;;;3.60;88.56;101571.38;1694032;82;25740;-78
2020/12/20 09:02:41;;;;;;;56.85;37.20;;;;;;;3.71;88.83;101581.06;1704818;82;25750;-78
2020/12/20 09:05:14;;;;;;;48.98;32.33;;;;;;;3.71;88.83;101581.06;1697102;82;25767;-78
2020/12/20 09:07:47;;;;;;;55.45;31.82;;;;;;;3.72;88.75;101577.11;1695051;82;25801;-78
2020/12/20 09:10:20;;;;;;;46.68;30.20;;;;;;;3.77;88.88;101581.55;1694081;82;25808;-78
2020/12/20 09:13:01;;;;;;;48.13;30.27;;;;;;;3.80;88.74;101587.01;1671800;82;25842;-78
2020/12/20 09:15:39;;;;;;;40.17;26.23;;;;;;;3.81;88.81;101584.78;1695223;82;25805;-78
2020/12/20 09:18:25;;;;;;;44.20;28.47;;;;;;;3.88;88.85;101580.09;1696168;82;25574;-78
2020/12/20 09:20:54;;;;;;;44.38;27.50;;;;;;;3.91;88.80;101585.08;1693631;82;25794;-78
2020/12/20 09:23:24;;;;;;;43.30;27.35;;;;;;;3.94;88.67;101583.13;1695746;82;26345;-78
2020/12/20 09:26:01;;;;;;;44.67;28.10;;;;;;;3.95;88.71;101581.38;1697819;82;25861;-78
2020/12/20 09:28:30;;;;;;;45.12;28.57;;;;;;;3.84;88.92;101559.20;1692914;82;26414;-79
2020/12/20 09:30:59;;;;;;;45.78;29.50;;;;;;;3.96;88.55;101574.83;1696955;82;25787;-78
2020/12/20 09:33:39;;;;;;;43.83;28.40;;;;;;;3.95;88.68;101581.38;1695867;82;26604;-78
2020/12/20 09:36:12;;;;;;;47.48;27.85;;;;;;;3.87;88.44;101579.70;1696269;82;25831;-78
2020/12/20 09:38:49;;;;;;;44.23;25.92;;;;;;;3.83;88.66;101577.77;1696101;82;25758;-78
2020/12/20 09:41:25;;;;;;;46.20;26.40;;;;;;;3.84;88.72;101579.42;1698865;82;25800;-78
2020/12/20 09:43:53;;;;;;;40.98;25.92;;;;;;;3.84;88.58;101583.77;1698482;82;25763;-78
2020/12/20 09:46:25;;;;;;;45.90;26.05;;;;;;;3.84;88.54;101584.59;1698266;82;25851;-78
2020/12/20 09:48:53;;;;;;;40.95;23.92;;;;;;;3.83;88.60;101582.94;1695000;82;25878;-78
2020/12/20 09:51:21;;;;;;;42.15;24.82;;;;;;;3.87;88.72;101591.34;1693864;82;25836;-78
2020/12/20 09:53:47;;;;;;;40.25;25.10;;;;;;;3.96;88.75;101585.64;1693070;82;25917;-78
2020/12/20 09:56:15;;;;;;;39.27;25.02;;;;;;;3.95;88.52;101587.84;1693901;82;25753;-79
2020/12/20 09:58:42;;;;;;;42.67;26.07;;;;;;;3.95;88.46;101587.84;1697213;82;26371;-78
2020/12/20 10:01:19;;;;;;;39.50;25.55;;;;;;;3.79;88.38;101560.76;1695601;82;26053;-79
2020/12/20 10:03:46;;;;;;;43.40;26.05;;;;;;;3.89;88.44;101585.63;1696323;82;26323;-78
2020/12/20 10:06:15;;;;;;;37.23;24.35;;;;;;;3.90;88.54;101584.25;1667096;82;25780;-78
2020/12/20 10:08:41;;;;;;;39.10;24.27;;;;;;;3.94;88.62;101587.48;1695228;82;25982;-78
2020/12/20 10:11:09;;;;;;;40.33;24.47;;;;;;;3.94;88.62;101591.36;1692254;82;25825;-78
2020/12/20 10:13:36;;;;;;;38.02;22.17;;;;;;;3.95;88.53;101586.55;1695666;82;26618;-78
2020/12/20 10:16:06;;;;;;;31.90;20.65;;;;;;;3.92;88.02;101586.73;1694086;82;25831;-78
2020/12/20 10:18:33;;;;;;;32.67;20.97;;;;;;;3.92;88.02;101586.73;1695812;82;25755;-78
2020/12/20 10:20:59;;;;;;;34.75;21.80;;;;;;;3.93;88.26;101587.12;1696443;82;25749;-78
2020/12/20 10:23:25;;;;;;;38.88;23.45;;;;;;;3.98;88.36;101587.21;1696036;82;25300;-78
2020/12/20 10:25:52;;;;;;;34.70;20.55;;;;;;;4.00;88.18;101585.81;1692806;82;25889;-78
2020/12/20 10:28:18;;;;;;;37.25;22.87;;;;;;;3.90;87.93;101577.78;1696607;82;25858;-78
2020/12/20 10:30:44;;;;;;;37.48;22.37;;;;;;;3.95;87.93;101578.78;1692453;82;26565;-78
2020/12/20 10:33:11;;;;;;;35.08;21.37;;;;;;;3.94;87.90;101579.72;1693717;82;25994;-79
2020/12/20 10:35:37;;;;;;;38.08;22.82;;;;;;;3.92;87.81;101580.27;1693491;82;26269;-78
2020/12/20 10:38:04;;;;;;;34.10;22.42;;;;;;;3.89;87.79;101579.98;1691925;82;25826;-78
2020/12/20 10:40:30;;;;;;;33.65;21.68;;;;;;;3.88;87.76;101571.86;1695648;82;26606;-80
2020/12/20 10:42:58;;;;;;;30.37;19.98;;;;;;;3.84;87.70;101575.54;1690961;82;25700;-78
2020/12/20 10:45:25;;;;;;;31.50;20.62;;;;;;;3.80;87.62;101575.38;1697647;82;26365;-78
2020/12/20 10:47:51;;;;;;;28.55;18.42;;;;;;;3.80;87.70;101573.25;1696193;82;25304;-78
2020/12/20 10:50:18;;;;;;;31.10;19.45;;;;;;;3.80;87.72;101582.30;1694906;82;25809;-78
2020/12/20 10:52:46;;;;;;;32.28;20.88;;;;;;;3.80;87.58;101583.59;1693782;82;26645;-78
2020/12/20 10:55:12;;;;;;;32.50;18.95;;;;;;;3.83;87.68;101580.36;1710599;82;25885;-78
2020/12/20 10:57:39;;;;;;;30.68;18.82;;;;;;;3.85;87.63;101580.28;1699137;82;25830;-78
2020/12/20 11:00:06;;;;;;;27.87;18.80;;;;;;;3.87;87.53;101584.41;1702948;82;25807;-78
2020/12/20 11:02:33;;;;;;;30.43;20.90;;;;;;;3.86;87.32;101581.46;1699339;82;25814;-78
2020/12/20 11:05:00;;;;;;;36.45;21.52;;;;;;;3.78;87.08;101580.62;1699599;82;25763;-78
2020/12/20 11:07:26;;;;;;;32.50;21.55;;;;;;;3.73;87.21;101583.11;1694170;82;25769;-78
2020/12/20 11:09:54;;;;;;;33.95;21.00;;;;;;;3.74;87.44;101582.20;1697728;82;26387;-78
2020/12/20 11:12:20;;;;;;;32.15;19.95;;;;;;;3.75;87.42;101582.56;1697950;82;25811;-78
2020/12/20 11:14:47;;;;;;;32.58;20.88;;;;;;;3.78;87.53;101582.37;1696372;82;26247;-78
2020/12/20 11:17:15;;;;;;;34.50;21.00;;;;;;;3.81;87.59;101586.54;1700126;82;25754;-78
2020/12/20 11:19:41;;;;;;;32.78;19.48;;;;;;;3.69;87.55;101563.08;1700559;82;25834;-78
2020/12/20 11:22:08;;;;;;;31.80;18.00;;;;;;;3.69;87.55;101563.08;1701648;82;25849;-78
2020/12/20 11:24:34;;;;;;;30.00;17.57;;;;;;;3.80;87.30;101581.83;1692137;82;25349;-78
2020/12/20 11:27:00;;;;;;;29.50;18.15;;;;;;;3.83;87.32;101579.06;1703246;82;25774;-78